Ulmodrome de Limoux

FR-0329 · Aude, Occitanie, 法国

罗盘
风向 的 风向 270°
风: 1 kt, 1 beaufort

添加一条跑道以查看侧风和逆风信息。

添置 跑道
0 1.000 2.000 3.000 4.000 5.000
OVC 1.300 ft
METAR LFMK 031530Z AUTO 27001KT 9999 OVC013 07/06 Q1007 NOSIG

METAR Ulmodrome de Limoux - FR-0329

Ulmodrome de Limoux是,法国中的小机场。 该领域的国际民航组织标志是FR-0329.

这份报告是针对2022年12月3日 16:30, 当地时间在Carcassonne Airport进行的。

机场观察

风向为270°,速度为1 kt。

可见度为10 km 或者更多。

有乌云密布在1.300 ft的高度。 破损或更高的上限为1.300 ft。

温度和风寒是7 °C。 露点为6 °C,相对湿度为93%。 海平面上的气压为1007 hPa (QNH)。

白天

今天,太阳从08:04升起,在17:16降落。 这适用于Ulmodrome de Limoux,世界夏令时可能有所不同。 当地时间与世界标准时间之间的时差为+1 小时。 当前,没有夏令时有效。

公司介绍

我们没有关于这个机场的公司信息。

体会

到Vliegles.nl去找飞行课程,跳伞和其他飞行体验。 浏览页面,了解Ulmodrome de Limoux附近所有可用的活动。 你也可以使用搜索功能来寻找你所在地附近的特定飞行课程、跳伞或其他飞行体验。

乌云

1.300 ft OVC 乌云密布

温度 & 天气

温度 7 °C
露点 6 °C
相对湿度 93%
Kp-index 2 (0-9)

白天

日出
08:04
中午
12:40
日落
17:16 (20m)

小工具

你想在你的网站上有一个关于Ulmodrome de Limoux的当前航空天气(METAR)的小部件吗?

显示HTML代码

我们和第三方通过cookies跟踪您在我们网站上的互联网行为。如果你继续,我们认为你同意我们的饼干政策